createdAt,value
2018-05-21T00:01:09.983Z,3.77
2018-05-21T00:03:38.197Z,3.80
2018-05-21T00:09:07.112Z,3.20
2018-05-21T00:11:35.383Z,3.90
2018-05-21T00:14:03.658Z,3.87
2018-05-21T00:16:31.934Z,5.20
2018-05-21T00:19:00.118Z,3.67
2018-05-21T00:21:29.161Z,4.03
2018-05-21T00:23:57.437Z,3.60
2018-05-21T00:26:51.467Z,4.10
2018-05-21T00:29:20.510Z,4.70
2018-05-21T00:31:49.136Z,4.30
2018-05-21T00:37:49.452Z,3.67
2018-05-21T00:46:19.905Z,3.63
2018-05-21T00:48:51.906Z,4.03
2018-05-21T00:51:20.113Z,6.40
2018-05-21T00:53:48.359Z,3.90
2018-05-21T00:59:17.970Z,8.50
2018-05-21T01:01:46.763Z,7.60
2018-05-21T01:07:46.385Z,8.20
2018-05-21T01:10:14.576Z,5.47
2018-05-21T01:12:42.832Z,5.73
2018-05-21T01:15:11.082Z,6.17
2018-05-21T01:17:39.266Z,6.53
2018-05-21T01:20:07.451Z,5.27
2018-05-21T01:22:35.668Z,5.53
2018-05-21T01:25:04.625Z,5.40
2018-05-21T01:27:32.819Z,5.20
2018-05-21T01:30:01.793Z,6.93
2018-05-21T01:32:49.784Z,5.30
2018-05-21T01:35:18.026Z,5.07
2018-05-21T01:37:46.971Z,5.10
2018-05-21T01:40:15.166Z,7.10
2018-05-21T01:42:43.377Z,5.80
2018-05-21T01:45:12.453Z,5.50
2018-05-21T01:47:41.500Z,5.30
2018-05-21T01:50:09.710Z,5.70
2018-05-21T01:52:52.020Z,5.07
2018-05-21T01:55:20.206Z,5.30
2018-05-21T01:57:49.231Z,6.30
2018-05-21T02:00:17.415Z,5.47
2018-05-21T02:02:45.607Z,6.33
2018-05-21T02:05:13.902Z,6.90
2018-05-21T02:07:42.847Z,6.63
2018-05-21T02:10:11.075Z,6.33
2018-05-21T02:18:14.797Z,5.73
2018-05-21T02:20:43.015Z,5.57
2018-05-21T02:26:11.586Z,4.10
2018-05-21T02:28:39.803Z,5.63
2018-05-21T02:31:08.028Z,6.20
2018-05-21T02:33:50.329Z,5.97
2018-05-21T02:36:19.334Z,5.67
2018-05-21T02:38:47.507Z,5.40
2018-05-21T02:44:16.832Z,5.50
2018-05-21T02:46:45.811Z,5.40
2018-05-21T02:49:14.906Z,4.53
2018-05-21T02:51:43.099Z,6.43
2018-05-21T02:54:12.051Z,6.10
2018-05-21T02:56:50.635Z,5.23
2018-05-21T02:59:19.378Z,5.33
2018-05-21T03:01:50.569Z,5.60
2018-05-21T03:04:18.753Z,5.20
2018-05-21T03:06:46.935Z,5.20
2018-05-21T03:09:15.242Z,5.90
2018-05-21T03:11:43.513Z,5.80
2018-05-21T03:14:11.795Z,4.97
2018-05-21T03:16:40.739Z,4.80
2018-05-21T03:19:08.917Z,5.30
2018-05-21T03:21:37.229Z,4.43
2018-05-21T03:24:05.505Z,3.90
2018-05-21T03:26:35.194Z,3.73
2018-05-21T03:29:03.454Z,3.40
2018-05-21T03:31:31.662Z,4.20
2018-05-21T03:34:01.478Z,3.20
2018-05-21T03:36:50.083Z,3.33
2018-05-21T03:39:18.299Z,3.80
2018-05-21T03:41:47.298Z,3.70
2018-05-21T03:44:15.481Z,4.80
2018-05-21T03:46:44.472Z,6.30
2018-05-21T03:49:13.449Z,6.07
2018-05-21T03:51:42.442Z,5.50
2018-05-21T03:54:12.160Z,4.77
2018-05-21T03:56:50.742Z,4.73
2018-05-21T03:59:36.882Z,5.33
2018-05-21T04:02:23.987Z,6.90
2018-05-21T04:04:52.165Z,5.70
2018-05-21T04:07:20.359Z,6.17
2018-05-21T04:09:49.630Z,5.30
2018-05-21T04:12:17.863Z,5.87
2018-05-21T04:14:46.995Z,5.10
2018-05-21T04:17:16.751Z,5.87
2018-05-21T04:19:44.942Z,4.97
2018-05-21T04:22:13.130Z,5.40
2018-05-21T04:24:41.351Z,5.10
2018-05-21T04:27:10.313Z,5.70
2018-05-21T04:29:38.603Z,4.23
2018-05-21T04:35:07.482Z,5.00
2018-05-21T04:37:35.677Z,6.00
2018-05-21T04:40:04.640Z,6.57
2018-05-21T04:42:32.856Z,4.50
2018-05-21T04:45:01.816Z,4.90
2018-05-21T04:47:30.072Z,4.10
2018-05-21T04:49:58.708Z,5.27
2018-05-21T04:52:27.790Z,4.80
2018-05-21T04:54:57.359Z,5.57
2018-05-21T04:57:25.551Z,5.00
2018-05-21T04:59:53.766Z,6.07
2018-05-21T05:02:48.997Z,5.40
2018-05-21T05:05:17.289Z,4.67
2018-05-21T05:07:45.562Z,5.40
2018-05-21T05:10:13.746Z,5.53
2018-05-21T05:12:41.948Z,5.83
2018-05-21T05:15:10.913Z,4.40
2018-05-21T05:17:39.278Z,5.53
2018-05-21T05:20:07.471Z,6.20
2018-05-21T05:22:35.667Z,4.90
2018-05-21T05:25:04.754Z,5.90
2018-05-21T05:27:33.098Z,5.60
2018-05-21T05:30:01.313Z,6.17
2018-05-21T05:32:29.542Z,5.50
2018-05-21T05:34:57.862Z,5.40
2018-05-21T05:37:26.086Z,4.27
2018-05-21T05:39:54.280Z,4.30
2018-05-21T05:42:48.888Z,5.80
2018-05-21T05:45:17.080Z,4.83
2018-05-21T05:47:51.910Z,5.13
2018-05-21T05:50:20.178Z,4.80
2018-05-21T05:52:49.122Z,4.47
2018-05-21T05:55:17.337Z,5.83
2018-05-21T05:57:47.152Z,4.67
2018-05-21T06:00:16.863Z,5.30
2018-05-21T06:02:46.574Z,5.00
2018-05-21T06:05:14.859Z,4.33
2018-05-21T06:07:43.113Z,4.80
2018-05-21T06:10:11.401Z,5.23
2018-05-21T06:12:52.380Z,4.70
2018-05-21T06:15:20.655Z,4.70
2018-05-21T06:17:48.875Z,4.43
2018-05-21T06:20:17.104Z,4.93
2018-05-21T06:22:45.321Z,4.50
2018-05-21T06:25:13.552Z,5.47
2018-05-21T06:27:41.739Z,5.20
2018-05-21T06:30:10.821Z,4.70
2018-05-21T06:32:51.686Z,4.53
2018-05-21T06:38:50.754Z,4.50
2018-05-21T06:52:50.542Z,6.27
2018-05-21T06:55:49.431Z,5.10
2018-05-21T07:04:50.273Z,5.97
2018-05-21T07:30:50.482Z,5.37
2018-05-21T07:39:49.655Z,5.47
2018-05-21T07:48:49.550Z,3.97
2018-05-21T07:54:49.804Z,3.20
2018-05-21T08:03:49.703Z,3.40
2018-05-21T08:18:49.447Z,4.20
2018-05-21T08:24:49.590Z,2.77
2018-05-21T08:36:50.311Z,2.57
2018-05-21T08:42:49.352Z,2.80
2018-05-21T08:51:49.766Z,2.63
2018-05-21T09:00:49.677Z,2.60
2018-05-21T09:09:50.181Z,2.70
2018-05-21T09:12:49.119Z,2.00
2018-05-21T09:24:49.546Z,2.90
2018-05-21T09:33:49.141Z,2.50
2018-05-21T09:36:17.847Z,2.43
2018-05-21T09:38:51.952Z,2.97
2018-05-21T09:41:50.725Z,2.30
2018-05-21T09:44:49.398Z,2.30
2018-05-21T09:50:49.095Z,3.20
2018-05-21T11:05:49.283Z,2.80
2018-05-21T11:17:49.733Z,2.90
2018-05-21T11:23:49.343Z,2.77
2018-05-21T11:32:49.011Z,3.10
2018-05-21T11:41:49.264Z,2.83
2018-05-21T11:56:49.103Z,2.40
2018-05-21T12:08:49.439Z,2.90
2018-05-21T12:14:49.183Z,2.87
2018-05-21T12:20:14.354Z,2.20
2018-05-21T12:22:50.682Z,3.17
2018-05-21T12:25:49.363Z,2.63
2018-05-21T12:28:17.568Z,2.67
2018-05-21T12:56:49.856Z,2.47
2018-05-21T13:02:49.831Z,2.57
2018-05-21T13:08:49.350Z,2.63
2018-05-21T13:17:49.093Z,2.80
2018-05-21T14:06:49.597Z,2.60
2018-05-21T14:12:49.423Z,2.50
2018-05-21T14:18:49.239Z,3.20
2018-05-21T14:27:49.499Z,2.70
2018-05-21T14:36:49.161Z,2.13
2018-05-21T14:48:49.789Z,2.43
2018-05-21T15:00:34.104Z,2.13
2018-05-21T15:51:11.817Z,2.53
2018-05-21T15:56:50.867Z,2.53
2018-05-21T15:59:36.347Z,2.70
2018-05-21T16:56:14.701Z,2.30
2018-05-21T16:58:42.914Z,2.77
2018-05-21T17:04:11.788Z,2.50
2018-05-21T17:09:51.736Z,3.10
2018-05-21T17:12:50.597Z,2.10
2018-05-21T17:15:49.494Z,2.87
2018-05-21T17:24:49.376Z,2.50
2018-05-21T17:45:50.370Z,2.60
2018-05-21T17:57:49.366Z,2.43
2018-05-21T18:03:18.609Z,2.40
2018-05-21T18:05:52.795Z,2.80
2018-05-21T18:08:50.875Z,3.00
2018-05-21T18:11:19.918Z,3.00
2018-05-21T18:13:48.138Z,3.00
2018-05-21T18:16:16.482Z,2.90
2018-05-21T18:18:44.829Z,3.40
2018-05-21T18:24:13.680Z,3.63
2018-05-21T18:26:52.060Z,2.90
2018-05-21T18:29:20.475Z,2.63
2018-05-21T18:31:51.725Z,3.10
2018-05-21T18:34:19.999Z,3.07
2018-05-21T18:36:48.343Z,2.50
2018-05-21T18:39:16.585Z,3.03
2018-05-21T18:41:44.802Z,2.97
2018-05-21T18:44:13.167Z,2.90
2018-05-21T18:46:41.393Z,3.40
2018-05-21T18:52:09.938Z,3.20
2018-05-21T18:54:52.029Z,3.73
2018-05-21T18:57:21.068Z,3.03
2018-05-21T18:59:49.347Z,3.50
2018-05-21T19:02:18.400Z,3.67
2018-05-21T19:04:53.666Z,3.70
2018-05-21T19:07:49.701Z,3.50
2018-05-21T19:10:18.093Z,3.40
2018-05-21T19:12:46.337Z,3.80
2018-05-21T19:15:15.441Z,3.10
2018-05-21T19:17:53.323Z,3.40
2018-05-21T19:20:21.600Z,3.60
2018-05-21T19:22:51.039Z,3.07
2018-05-21T19:25:19.355Z,3.73
2018-05-21T19:27:48.508Z,3.50
2018-05-21T19:30:16.735Z,3.63
2018-05-21T19:32:45.752Z,4.53
2018-05-21T19:35:14.020Z,3.93
2018-05-21T19:37:42.230Z,4.30
2018-05-21T19:40:10.480Z,4.50
2018-05-21T19:42:38.703Z,4.07
2018-05-21T19:48:38.491Z,4.33
2018-05-21T19:51:06.707Z,3.87
2018-05-21T19:53:36.470Z,4.17
2018-05-21T19:56:04.726Z,5.10
2018-05-21T19:58:33.746Z,4.70
2018-05-21T20:01:02.016Z,5.23
2018-05-21T20:03:30.296Z,5.00
2018-05-21T20:05:59.315Z,6.00
2018-05-21T20:08:27.688Z,6.47
2018-05-21T20:10:55.907Z,5.53
2018-05-21T20:13:50.889Z,6.30
2018-05-21T20:16:19.121Z,6.40
2018-05-21T20:18:53.388Z,6.10
2018-05-21T20:21:21.706Z,5.60
2018-05-21T20:23:49.971Z,6.70
2018-05-21T20:30:24.291Z,6.20
2018-05-21T20:32:52.603Z,6.53
2018-05-21T20:35:20.875Z,7.17
2018-05-21T20:37:49.094Z,7.80
2018-05-21T20:40:17.530Z,5.53
2018-05-21T20:42:45.829Z,7.07
2018-05-21T20:45:14.106Z,7.33
2018-05-21T20:47:42.364Z,6.03
2018-05-21T20:50:10.618Z,6.10
2018-05-21T20:52:38.857Z,6.33
2018-05-21T20:55:07.839Z,7.77
2018-05-21T20:57:36.173Z,6.83
2018-05-21T21:00:04.400Z,5.03
2018-05-21T21:02:33.393Z,8.00
2018-05-21T21:05:01.649Z,4.10
2018-05-21T21:07:29.883Z,7.93
2018-05-21T21:09:58.114Z,6.17
2018-05-21T21:12:27.141Z,7.73
2018-05-21T21:14:56.131Z,6.40
2018-05-21T21:17:25.112Z,6.40
2018-05-21T21:19:53.363Z,7.80
2018-05-21T21:22:21.594Z,5.40
2018-05-21T21:24:49.816Z,8.10
2018-05-21T21:27:18.067Z,7.90
2018-05-21T21:29:46.300Z,8.00
2018-05-21T21:32:15.316Z,7.47
2018-05-21T21:34:43.722Z,6.60
2018-05-21T21:40:13.722Z,6.93
2018-05-21T21:42:42.003Z,6.50
2018-05-21T21:45:10.228Z,6.87
2018-05-21T21:47:38.553Z,6.67
2018-05-21T21:50:07.641Z,7.13
2018-05-21T21:52:36.242Z,5.93
2018-05-21T21:55:04.532Z,7.57
2018-05-21T22:00:24.010Z,6.13
2018-05-21T22:02:52.275Z,4.60
2018-05-21T22:05:20.491Z,7.50
2018-05-21T22:07:49.522Z,6.37
2018-05-21T22:10:18.512Z,7.60
2018-05-21T22:12:47.508Z,7.00
2018-05-21T22:18:13.767Z,6.47
2018-05-21T22:20:42.080Z,6.67
2018-05-21T22:23:10.311Z,6.13
2018-05-21T22:25:51.336Z,6.10
2018-05-21T22:28:19.566Z,6.83
2018-05-21T22:30:47.875Z,6.57
2018-05-21T22:33:16.127Z,5.73
2018-05-21T22:35:44.395Z,6.00
2018-05-21T22:38:12.808Z,6.33
2018-05-21T22:40:51.605Z,8.17
2018-05-21T22:43:19.867Z,7.23
2018-05-21T22:45:51.432Z,6.37
2018-05-21T22:48:50.226Z,6.20
2018-05-21T22:51:18.455Z,6.80
2018-05-21T22:53:46.795Z,6.73
2018-05-21T22:56:15.152Z,6.43
2018-05-21T22:58:43.450Z,6.70
2018-05-21T23:01:11.680Z,6.27
2018-05-21T23:03:40.706Z,6.03
2018-05-21T23:06:08.990Z,6.93
2018-05-21T23:08:51.288Z,7.60
2018-05-21T23:11:19.517Z,5.70
2018-05-21T23:13:48.535Z,5.70
2018-05-21T23:16:50.030Z,5.87
2018-05-21T23:19:18.252Z,6.10
2018-05-21T23:21:47.231Z,5.63
2018-05-21T23:24:16.250Z,6.13
2018-05-21T23:26:51.179Z,5.93
2018-05-21T23:29:19.459Z,6.80
2018-05-21T23:31:53.672Z,6.27
2018-05-21T23:34:21.985Z,6.00
2018-05-21T23:36:51.451Z,6.20
2018-05-21T23:39:19.676Z,6.10
2018-05-21T23:41:47.929Z,6.30
2018-05-21T23:44:16.175Z,6.20
2018-05-21T23:46:51.724Z,6.67
2018-05-21T23:49:20.000Z,4.83
2018-05-21T23:51:48.276Z,4.23
2018-05-21T23:54:16.515Z,5.20
2018-05-21T23:56:51.596Z,6.87
2018-05-21T23:59:19.962Z,6.83
